sensor_id;sensor_type;location;lat;lon;timestamp;temperature;humidity
44823;DHT22;51097;51.984;5.650;2023-11-21T00:00:10;11.30;99.90
44823;DHT22;51097;51.984;5.650;2023-11-21T00:02:38;11.20;99.90
44823;DHT22;51097;51.984;5.650;2023-11-21T00:05:07;11.20;99.90
44823;DHT22;51097;51.984;5.650;2023-11-21T00:07:35;11.10;99.90
44823;DHT22;51097;51.984;5.650;2023-11-21T00:10:01;11.10;99.90
44823;DHT22;51097;51.984;5.650;2023-11-21T00:12:28;11.00;99.90
44823;DHT22;51097;51.984;5.650;2023-11-21T00:14:54;11.00;99.90
44823;DHT22;51097;51.984;5.650;2023-11-21T00:17:20;10.90;99.90
44823;DHT22;51097;51.984;5.650;2023-11-21T00:19:46;10.90;99.90
44823;DHT22;51097;51.984;5.650;2023-11-21T00:22:11;10.90;99.90
44823;DHT22;51097;51.984;5.650;2023-11-21T00:24:37;10.80;99.90
44823;DHT22;51097;51.984;5.650;2023-11-21T00:27:02;10.80;99.90
44823;DHT22;51097;51.984;5.650;2023-11-21T00:29:28;10.80;99.90
44823;DHT22;51097;51.984;5.650;2023-11-21T00:31:54;10.80;99.90
44823;DHT22;51097;51.984;5.650;2023-11-21T00:34:20;10.80;99.90
44823;DHT22;51097;51.984;5.650;2023-11-21T00:36:45;10.60;99.90
44823;DHT22;51097;51.984;5.650;2023-11-21T00:39:11;10.70;99.90
44823;DHT22;51097;51.984;5.650;2023-11-21T00:41:37;10.70;99.90
44823;DHT22;51097;51.984;5.650;2023-11-21T00:44:03;10.60;99.90
44823;DHT22;51097;51.984;5.650;2023-11-21T00:46:28;10.60;99.90
44823;DHT22;51097;51.984;5.650;2023-11-21T00:48:55;10.50;99.90
44823;DHT22;51097;51.984;5.650;2023-11-21T00:51:21;10.50;99.90
44823;DHT22;51097;51.984;5.650;2023-11-21T00:53:47;10.50;99.90
44823;DHT22;51097;51.984;5.650;2023-11-21T00:56:13;10.40;99.90
44823;DHT22;51097;51.984;5.650;2023-11-21T00:58:39;10.40;99.90
44823;DHT22;51097;51.984;5.650;2023-11-21T01:01:09;10.40;99.90
44823;DHT22;51097;51.984;5.650;2023-11-21T01:03:34;10.40;99.90
44823;DHT22;51097;51.984;5.650;2023-11-21T01:06:00;10.40;99.90
44823;DHT22;51097;51.984;5.650;2023-11-21T01:08:26;10.30;99.90
44823;DHT22;51097;51.984;5.650;2023-11-21T01:10:51;10.30;99.90
44823;DHT22;51097;51.984;5.650;2023-11-21T01:13:17;10.30;99.90
44823;DHT22;51097;51.984;5.650;2023-11-21T01:15:43;10.30;99.90
44823;DHT22;51097;51.984;5.650;2023-11-21T01:18:09;10.20;99.90
44823;DHT22;51097;51.984;5.650;2023-11-21T01:20:34;10.20;99.90
44823;DHT22;51097;51.984;5.650;2023-11-21T01:23:00;10.20;99.90
44823;DHT22;51097;51.984;5.650;2023-11-21T01:25:26;10.30;99.90
44823;DHT22;51097;51.984;5.650;2023-11-21T01:27:52;10.20;99.90
44823;DHT22;51097;51.984;5.650;2023-11-21T01:30:18;10.20;99.90
44823;DHT22;51097;51.984;5.650;2023-11-21T01:32:43;10.20;99.90
44823;DHT22;51097;51.984;5.650;2023-11-21T01:35:09;10.20;99.90
44823;DHT22;51097;51.984;5.650;2023-11-21T01:37:38;10.10;99.90
44823;DHT22;51097;51.984;5.650;2023-11-21T01:40:04;10.20;99.90
44823;DHT22;51097;51.984;5.650;2023-11-21T01:42:34;10.30;99.90
44823;DHT22;51097;51.984;5.650;2023-11-21T01:45:00;10.40;99.90
44823;DHT22;51097;51.984;5.650;2023-11-21T01:47:33;10.30;99.90
44823;DHT22;51097;51.984;5.650;2023-11-21T01:49:59;10.30;99.90
44823;DHT22;51097;51.984;5.650;2023-11-21T01:52:26;10.30;99.90
44823;DHT22;51097;51.984;5.650;2023-11-21T01:54:52;10.30;99.90
44823;DHT22;51097;51.984;5.650;2023-11-21T01:57:19;10.30;99.90
44823;DHT22;51097;51.984;5.650;2023-11-21T01:59:47;10.20;99.90
44823;DHT22;51097;51.984;5.650;2023-11-21T02:02:14;10.40;99.90
44823;DHT22;51097;51.984;5.650;2023-11-21T02:04:39;10.30;99.90
44823;DHT22;51097;51.984;5.650;2023-11-21T02:07:05;10.30;99.90
44823;DHT22;51097;51.984;5.650;2023-11-21T02:09:31;10.30;99.90
44823;DHT22;51097;51.984;5.650;2023-11-21T02:12:00;10.40;99.90
44823;DHT22;51097;51.984;5.650;2023-11-21T02:14:26;10.30;99.90
44823;DHT22;51097;51.984;5.650;2023-11-21T02:16:53;10.30;99.90
44823;DHT22;51097;51.984;5.650;2023-11-21T02:19:20;10.30;99.90
44823;DHT22;51097;51.984;5.650;2023-11-21T02:21:49;10.30;99.90
44823;DHT22;51097;51.984;5.650;2023-11-21T02:24:21;10.20;99.90
44823;DHT22;51097;51.984;5.650;2023-11-21T02:26:47;10.20;99.90
44823;DHT22;51097;51.984;5.650;2023-11-21T02:29:13;10.20;99.90
44823;DHT22;51097;51.984;5.650;2023-11-21T02:31:42;10.20;99.90
44823;DHT22;51097;51.984;5.650;2023-11-21T02:34:17;10.20;99.90
44823;DHT22;51097;51.984;5.650;2023-11-21T02:36:44;10.20;99.90
44823;DHT22;51097;51.984;5.650;2023-11-21T02:39:10;10.30;99.90
44823;DHT22;51097;51.984;5.650;2023-11-21T02:41:39;10.30;99.90
44823;DHT22;51097;51.984;5.650;2023-11-21T02:44:06;10.30;99.90
44823;DHT22;51097;51.984;5.650;2023-11-21T02:46:33;10.30;99.90
44823;DHT22;51097;51.984;5.650;2023-11-21T02:49:00;10.30;99.90
44823;DHT22;51097;51.984;5.650;2023-11-21T02:51:26;10.40;99.90
44823;DHT22;51097;51.984;5.650;2023-11-21T02:53:51;10.40;99.90
44823;DHT22;51097;51.984;5.650;2023-11-21T02:56:17;10.40;99.90
44823;DHT22;51097;51.984;5.650;2023-11-21T02:58:43;10.50;99.90
44823;DHT22;51097;51.984;5.650;2023-11-21T03:01:11;10.50;99.90
44823;DHT22;51097;51.984;5.650;2023-11-21T03:03:38;10.60;99.90
44823;DHT22;51097;51.984;5.650;2023-11-21T03:06:08;10.60;99.90
44823;DHT22;51097;51.984;5.650;2023-11-21T03:08:34;10.70;99.90
44823;DHT22;51097;51.984;5.650;2023-11-21T03:11:00;10.70;99.90
44823;DHT22;51097;51.984;5.650;2023-11-21T03:13:25;10.80;99.90
44823;DHT22;51097;51.984;5.650;2023-11-21T03:15:51;10.80;99.90
44823;DHT22;51097;51.984;5.650;2023-11-21T03:18:17;10.80;99.90
44823;DHT22;51097;51.984;5.650;2023-11-21T03:20:43;10.80;99.90
44823;DHT22;51097;51.984;5.650;2023-11-21T03:23:11;10.90;99.90
44823;DHT22;51097;51.984;5.650;2023-11-21T03:25:37;10.90;99.90
44823;DHT22;51097;51.984;5.650;2023-11-21T03:28:03;10.90;99.90
44823;DHT22;51097;51.984;5.650;2023-11-21T03:30:28;10.90;99.90
44823;DHT22;51097;51.984;5.650;2023-11-21T03:32:54;11.00;99.90
44823;DHT22;51097;51.984;5.650;2023-11-21T03:35:20;11.00;99.90
44823;DHT22;51097;51.984;5.650;2023-11-21T03:37:46;11.10;99.90
44823;DHT22;51097;51.984;5.650;2023-11-21T03:40:12;11.10;99.90
44823;DHT22;51097;51.984;5.650;2023-11-21T03:42:38;11.10;99.90
44823;DHT22;51097;51.984;5.650;2023-11-21T03:45:07;11.20;99.90
44823;DHT22;51097;51.984;5.650;2023-11-21T03:47:34;11.20;99.90
44823;DHT22;51097;51.984;5.650;2023-11-21T03:49:59;11.20;99.90
44823;DHT22;51097;51.984;5.650;2023-11-21T03:52:25;11.30;99.90
44823;DHT22;51097;51.984;5.650;2023-11-21T03:54:50;11.30;99.90
44823;DHT22;51097;51.984;5.650;2023-11-21T03:57:16;11.40;99.90
44823;DHT22;51097;51.984;5.650;2023-11-21T03:59:42;11.40;99.90
44823;DHT22;51097;51.984;5.650;2023-11-21T04:02:08;11.40;99.90
44823;DHT22;51097;51.984;5.650;2023-11-21T04:04:35;11.40;99.90
44823;DHT22;51097;51.984;5.650;2023-11-21T04:07:00;11.40;99.90
44823;DHT22;51097;51.984;5.650;2023-11-21T04:09:26;11.50;99.90
44823;DHT22;51097;51.984;5.650;2023-11-21T04:11:52;11.50;99.90
44823;DHT22;51097;51.984;5.650;2023-11-21T04:14:18;11.40;99.90
44823;DHT22;51097;51.984;5.650;2023-11-21T04:16:44;11.50;99.90
44823;DHT22;51097;51.984;5.650;2023-11-21T04:19:09;11.60;99.90
44823;DHT22;51097;51.984;5.650;2023-11-21T04:21:36;11.50;99.90
44823;DHT22;51097;51.984;5.650;2023-11-21T04:24:02;11.70;99.90
44823;DHT22;51097;51.984;5.650;2023-11-21T04:26:27;11.70;99.90
44823;DHT22;51097;51.984;5.650;2023-11-21T04:28:53;11.70;99.90
44823;DHT22;51097;51.984;5.650;2023-11-21T04:31:18;11.80;99.90
44823;DHT22;51097;51.984;5.650;2023-11-21T04:33:44;11.80;99.90
44823;DHT22;51097;51.984;5.650;2023-11-21T04:36:10;11.80;99.90
44823;DHT22;51097;51.984;5.650;2023-11-21T04:38:36;11.80;99.90
44823;DHT22;51097;51.984;5.650;2023-11-21T04:41:01;11.80;99.90
44823;DHT22;51097;51.984;5.650;2023-11-21T04:43:27;11.80;99.90
44823;DHT22;51097;51.984;5.650;2023-11-21T04:45:54;11.90;99.90
44823;DHT22;51097;51.984;5.650;2023-11-21T04:48:20;11.90;99.90
44823;DHT22;51097;51.984;5.650;2023-11-21T04:50:45;11.90;99.90
44823;DHT22;51097;51.984;5.650;2023-11-21T04:53:11;11.90;99.90
44823;DHT22;51097;51.984;5.650;2023-11-21T04:55:42;11.80;99.90
44823;DHT22;51097;51.984;5.650;2023-11-21T04:58:08;12.00;99.90
44823;DHT22;51097;51.984;5.650;2023-11-21T05:00:34;12.00;99.90
44823;DHT22;51097;51.984;5.650;2023-11-21T05:02:59;12.10;99.90
44823;DHT22;51097;51.984;5.650;2023-11-21T05:05:26;12.00;99.90
44823;DHT22;51097;51.984;5.650;2023-11-21T05:07:52;12.00;99.90
44823;DHT22;51097;51.984;5.650;2023-11-21T05:10:19;12.10;99.90
44823;DHT22;51097;51.984;5.650;2023-11-21T05:12:44;12.10;99.90
44823;DHT22;51097;51.984;5.650;2023-11-21T05:15:14;12.20;99.90
44823;DHT22;51097;51.984;5.650;2023-11-21T05:17:40;12.10;99.90
44823;DHT22;51097;51.984;5.650;2023-11-21T05:20:13;12.10;99.90
44823;DHT22;51097;51.984;5.650;2023-11-21T05:22:40;12.20;99.90
44823;DHT22;51097;51.984;5.650;2023-11-21T05:25:06;12.30;99.90
44823;DHT22;51097;51.984;5.650;2023-11-21T05:27:33;12.20;99.90
44823;DHT22;51097;51.984;5.650;2023-11-21T05:30:03;12.20;99.90
44823;DHT22;51097;51.984;5.650;2023-11-21T05:32:34;12.20;99.90
44823;DHT22;51097;51.984;5.650;2023-11-21T05:35:00;12.30;99.90
44823;DHT22;51097;51.984;5.650;2023-11-21T05:37:26;12.30;99.90
44823;DHT22;51097;51.984;5.650;2023-11-21T05:39:53;12.30;99.90
44823;DHT22;51097;51.984;5.650;2023-11-21T05:42:18;12.30;99.90
44823;DHT22;51097;51.984;5.650;2023-11-21T05:44:44;12.30;99.90
44823;DHT22;51097;51.984;5.650;2023-11-21T05:47:10;12.30;99.90
44823;DHT22;51097;51.984;5.650;2023-11-21T05:49:36;12.30;99.90
44823;DHT22;51097;51.984;5.650;2023-11-21T05:52:02;12.40;99.90
44823;DHT22;51097;51.984;5.650;2023-11-21T05:54:28;12.40;99.90
44823;DHT22;51097;51.984;5.650;2023-11-21T05:56:54;12.40;99.90
44823;DHT22;51097;51.984;5.650;2023-11-21T05:59:19;12.40;99.90
44823;DHT22;51097;51.984;5.650;2023-11-21T06:01:46;12.40;99.90
44823;DHT22;51097;51.984;5.650;2023-11-21T06:04:11;12.40;99.90
44823;DHT22;51097;51.984;5.650;2023-11-21T06:06:38;12.40;99.90
44823;DHT22;51097;51.984;5.650;2023-11-21T06:09:04;12.40;99.90
44823;DHT22;51097;51.984;5.650;2023-11-21T06:11:31;12.50;99.90
44823;DHT22;51097;51.984;5.650;2023-11-21T06:13:57;12.50;99.90
44823;DHT22;51097;51.984;5.650;2023-11-21T06:16:23;12.50;99.90
44823;DHT22;51097;51.984;5.650;2023-11-21T06:18:49;12.50;99.90
44823;DHT22;51097;51.984;5.650;2023-11-21T06:21:15;12.50;99.90
44823;DHT22;51097;51.984;5.650;2023-11-21T06:23:42;12.50;99.90
44823;DHT22;51097;51.984;5.650;2023-11-21T06:26:08;12.50;99.90
44823;DHT22;51097;51.984;5.650;2023-11-21T06:28:34;12.40;99.90
44823;DHT22;51097;51.984;5.650;2023-11-21T06:31:01;12.50;99.90
44823;DHT22;51097;51.984;5.650;2023-11-21T06:33:31;12.60;99.90
44823;DHT22;51097;51.984;5.650;2023-11-21T06:35:56;12.60;99.90
44823;DHT22;51097;51.984;5.650;2023-11-21T06:38:22;12.60;99.90
44823;DHT22;51097;51.984;5.650;2023-11-21T06:40:48;12.60;99.90
44823;DHT22;51097;51.984;5.650;2023-11-21T06:43:13;12.60;99.90
44823;DHT22;51097;51.984;5.650;2023-11-21T06:45:39;12.60;99.90
44823;DHT22;51097;51.984;5.650;2023-11-21T06:48:05;12.60;99.90
44823;DHT22;51097;51.984;5.650;2023-11-21T06:50:30;12.60;99.90
44823;DHT22;51097;51.984;5.650;2023-11-21T06:52:56;12.60;99.90
44823;DHT22;51097;51.984;5.650;2023-11-21T06:55:21;12.60;99.90
44823;DHT22;51097;51.984;5.650;2023-11-21T06:57:47;12.70;99.90
44823;DHT22;51097;51.984;5.650;2023-11-21T07:00:15;12.70;99.90
44823;DHT22;51097;51.984;5.650;2023-11-21T07:02:41;12.70;99.90
44823;DHT22;51097;51.984;5.650;2023-11-21T07:05:06;12.60;99.90
44823;DHT22;51097;51.984;5.650;2023-11-21T07:07:32;12.70;99.90
44823;DHT22;51097;51.984;5.650;2023-11-21T07:10:01;12.70;99.90
44823;DHT22;51097;51.984;5.650;2023-11-21T07:12:29;12.70;99.90
44823;DHT22;51097;51.984;5.650;2023-11-21T07:14:55;12.70;99.90
44823;DHT22;51097;51.984;5.650;2023-11-21T07:17:21;12.60;99.90
44823;DHT22;51097;51.984;5.650;2023-11-21T07:19:48;12.70;99.90
44823;DHT22;51097;51.984;5.650;2023-11-21T07:22:14;12.70;99.90
44823;DHT22;51097;51.984;5.650;2023-11-21T07:24:40;12.80;99.90
44823;DHT22;51097;51.984;5.650;2023-11-21T07:27:06;12.80;99.90
44823;DHT22;51097;51.984;5.650;2023-11-21T07:29:32;12.80;99.90
44823;DHT22;51097;51.984;5.650;2023-11-21T07:31:58;12.80;99.90
44823;DHT22;51097;51.984;5.650;2023-11-21T07:34:24;12.80;99.90
44823;DHT22;51097;51.984;5.650;2023-11-21T07:36:49;12.80;99.90
44823;DHT22;51097;51.984;5.650;2023-11-21T07:39:15;12.80;99.90
44823;DHT22;51097;51.984;5.650;2023-11-21T07:41:43;12.90;99.90
44823;DHT22;51097;51.984;5.650;2023-11-21T07:44:14;12.90;99.90
44823;DHT22;51097;51.984;5.650;2023-11-21T07:46:39;12.90;99.90
44823;DHT22;51097;51.984;5.650;2023-11-21T07:49:05;12.90;99.90
44823;DHT22;51097;51.984;5.650;2023-11-21T07:51:31;12.90;99.90
44823;DHT22;51097;51.984;5.650;2023-11-21T07:53:56;12.90;99.90
44823;DHT22;51097;51.984;5.650;2023-11-21T07:56:22;12.90;99.90
44823;DHT22;51097;51.984;5.650;2023-11-21T07:58:48;13.00;99.90
44823;DHT22;51097;51.984;5.650;2023-11-21T08:01:13;12.90;99.90
44823;DHT22;51097;51.984;5.650;2023-11-21T08:03:39;13.00;99.90
44823;DHT22;51097;51.984;5.650;2023-11-21T08:06:04;13.20;99.90
44823;DHT22;51097;51.984;5.650;2023-11-21T08:08:32;13.00;99.90
44823;DHT22;51097;51.984;5.650;2023-11-21T08:10:57;13.10;99.90
44823;DHT22;51097;51.984;5.650;2023-11-21T08:13:27;13.10;99.90
44823;DHT22;51097;51.984;5.650;2023-11-21T08:15:57;13.10;99.90
44823;DHT22;51097;51.984;5.650;2023-11-21T08:18:27;13.10;99.90
44823;DHT22;51097;51.984;5.650;2023-11-21T08:20:54;13.10;99.90
44823;DHT22;51097;51.984;5.650;2023-11-21T08:23:20;13.20;99.90
44823;DHT22;51097;51.984;5.650;2023-11-21T08:25:46;13.10;99.90
44823;DHT22;51097;51.984;5.650;2023-11-21T08:28:13;13.20;99.90
44823;DHT22;51097;51.984;5.650;2023-11-21T08:30:41;13.30;99.90
44823;DHT22;51097;51.984;5.650;2023-11-21T08:33:07;13.30;99.90
44823;DHT22;51097;51.984;5.650;2023-11-21T08:35:34;13.30;99.90
44823;DHT22;51097;51.984;5.650;2023-11-21T08:37:59;13.30;99.90
44823;DHT22;51097;51.984;5.650;2023-11-21T08:40:25;13.40;99.90
44823;DHT22;51097;51.984;5.650;2023-11-21T08:42:51;13.40;99.90
44823;DHT22;51097;51.984;5.650;2023-11-21T08:45:18;13.40;99.90
44823;DHT22;51097;51.984;5.650;2023-11-21T08:47:44;13.40;99.90
44823;DHT22;51097;51.984;5.650;2023-11-21T08:50:10;13.40;99.90
44823;DHT22;51097;51.984;5.650;2023-11-21T08:52:37;13.50;99.90
44823;DHT22;51097;51.984;5.650;2023-11-21T08:55:04;13.60;99.90
44823;DHT22;51097;51.984;5.650;2023-11-21T08:57:36;13.60;99.90
44823;DHT22;51097;51.984;5.650;2023-11-21T09:00:06;13.60;99.90
44823;DHT22;51097;51.984;5.650;2023-11-21T09:02:35;13.60;99.90
44823;DHT22;51097;51.984;5.650;2023-11-21T09:05:05;13.80;99.90
44823;DHT22;51097;51.984;5.650;2023-11-21T09:07:31;13.70;99.90
44823;DHT22;51097;51.984;5.650;2023-11-21T09:09:57;13.70;99.90
44823;DHT22;51097;51.984;5.650;2023-11-21T09:12:23;13.70;99.90
44823;DHT22;51097;51.984;5.650;2023-11-21T09:14:50;13.80;99.90
44823;DHT22;51097;51.984;5.650;2023-11-21T09:17:16;13.80;99.90
44823;DHT22;51097;51.984;5.650;2023-11-21T09:19:42;13.80;99.90
44823;DHT22;51097;51.984;5.650;2023-11-21T09:22:10;13.90;99.90
44823;DHT22;51097;51.984;5.650;2023-11-21T09:24:36;13.90;99.90
44823;DHT22;51097;51.984;5.650;2023-11-21T09:27:03;13.90;99.90
44823;DHT22;51097;51.984;5.650;2023-11-21T09:29:30;14.00;99.90
44823;DHT22;51097;51.984;5.650;2023-11-21T09:31:56;14.00;99.90
44823;DHT22;51097;51.984;5.650;2023-11-21T09:34:25;14.10;99.90
44823;DHT22;51097;51.984;5.650;2023-11-21T09:36:51;14.10;99.90
44823;DHT22;51097;51.984;5.650;2023-11-21T09:39:17;14.10;99.90
44823;DHT22;51097;51.984;5.650;2023-11-21T09:41:50;14.20;99.90
44823;DHT22;51097;51.984;5.650;2023-11-21T09:44:18;14.10;99.90
44823;DHT22;51097;51.984;5.650;2023-11-21T09:46:48;14.20;99.90
44823;DHT22;51097;51.984;5.650;2023-11-21T09:49:23;14.30;99.90
44823;DHT22;51097;51.984;5.650;2023-11-21T09:51:51;14.30;99.90
44823;DHT22;51097;51.984;5.650;2023-11-21T09:54:19;14.30;99.90
44823;DHT22;51097;51.984;5.650;2023-11-21T09:56:46;14.40;99.90
44823;DHT22;51097;51.984;5.650;2023-11-21T09:59:15;14.50;99.90
44823;DHT22;51097;51.984;5.650;2023-11-21T10:01:42;14.60;99.90
44823;DHT22;51097;51.984;5.650;2023-11-21T10:04:11;14.80;99.90
44823;DHT22;51097;51.984;5.650;2023-11-21T10:06:40;14.70;99.90
44823;DHT22;51097;51.984;5.650;2023-11-21T10:09:12;14.90;99.90
44823;DHT22;51097;51.984;5.650;2023-11-21T10:11:42;14.90;99.90
44823;DHT22;51097;51.984;5.650;2023-11-21T10:14:12;14.90;99.90
44823;DHT22;51097;51.984;5.650;2023-11-21T10:16:40;15.00;99.90
44823;DHT22;51097;51.984;5.650;2023-11-21T10:19:06;15.00;99.90
44823;DHT22;51097;51.984;5.650;2023-11-21T10:21:35;15.10;99.90
44823;DHT22;51097;51.984;5.650;2023-11-21T10:24:01;15.10;99.90
44823;DHT22;51097;51.984;5.650;2023-11-21T10:26:28;15.10;99.90
44823;DHT22;51097;51.984;5.650;2023-11-21T10:29:01;15.10;99.90
44823;DHT22;51097;51.984;5.650;2023-11-21T10:31:32;15.10;99.90
44823;DHT22;51097;51.984;5.650;2023-11-21T10:34:15;15.10;99.90
44823;DHT22;51097;51.984;5.650;2023-11-21T10:36:41;15.10;99.90
44823;DHT22;51097;51.984;5.650;2023-11-21T10:39:07;15.10;99.90
44823;DHT22;51097;51.984;5.650;2023-11-21T10:41:33;15.00;99.90
44823;DHT22;51097;51.984;5.650;2023-11-21T10:43:58;15.10;99.90
44823;DHT22;51097;51.984;5.650;2023-11-21T10:46:24;15.10;99.90
44823;DHT22;51097;51.984;5.650;2023-11-21T10:48:54;15.00;99.90
44823;DHT22;51097;51.984;5.650;2023-11-21T10:51:21;15.00;99.90
44823;DHT22;51097;51.984;5.650;2023-11-21T10:53:47;15.10;99.90
44823;DHT22;51097;51.984;5.650;2023-11-21T10:56:16;15.00;99.90
44823;DHT22;51097;51.984;5.650;2023-11-21T10:58:48;14.80;99.90
44823;DHT22;51097;51.984;5.650;2023-11-21T11:01:15;15.20;99.90
44823;DHT22;51097;51.984;5.650;2023-11-21T11:03:42;15.00;99.90
44823;DHT22;51097;51.984;5.650;2023-11-21T11:06:09;15.10;99.90
44823;DHT22;51097;51.984;5.650;2023-11-21T11:08:37;15.10;99.90
44823;DHT22;51097;51.984;5.650;2023-11-21T11:11:07;15.00;99.90
44823;DHT22;51097;51.984;5.650;2023-11-21T11:13:33;15.00;99.90
44823;DHT22;51097;51.984;5.650;2023-11-21T11:16:00;15.00;99.90
44823;DHT22;51097;51.984;5.650;2023-11-21T11:18:27;15.00;99.90
44823;DHT22;51097;51.984;5.650;2023-11-21T11:20:54;14.90;99.90
44823;DHT22;51097;51.984;5.650;2023-11-21T11:26:12;15.00;99.90
44823;DHT22;51097;51.984;5.650;2023-11-21T11:32:00;14.90;99.90
44823;DHT22;51097;51.984;5.650;2023-11-21T11:34:32;15.00;99.90
44823;DHT22;51097;51.984;5.650;2023-11-21T11:37:06;15.00;99.90
44823;DHT22;51097;51.984;5.650;2023-11-21T11:39:39;14.90;99.90
44823;DHT22;51097;51.984;5.650;2023-11-21T11:42:08;15.00;99.90
44823;DHT22;51097;51.984;5.650;2023-11-21T11:47:16;14.90;99.90
44823;DHT22;51097;51.984;5.650;2023-11-21T11:52:32;15.00;99.90
44823;DHT22;51097;51.984;5.650;2023-11-21T11:54:59;15.00;99.90
44823;DHT22;51097;51.984;5.650;2023-11-21T11:57:25;14.90;99.90
44823;DHT22;51097;51.984;5.650;2023-11-21T12:02:39;15.30;99.90
44823;DHT22;51097;51.984;5.650;2023-11-21T12:05:16;15.30;99.90
44823;DHT22;51097;51.984;5.650;2023-11-21T12:07:52;15.20;99.90
44823;DHT22;51097;51.984;5.650;2023-11-21T12:10:20;15.20;99.90
44823;DHT22;51097;51.984;5.650;2023-11-21T12:12:49;15.20;99.90
44823;DHT22;51097;51.984;5.650;2023-11-21T12:15:15;15.20;99.90
44823;DHT22;51097;51.984;5.650;2023-11-21T12:17:42;15.20;99.90
44823;DHT22;51097;51.984;5.650;2023-11-21T12:20:09;15.20;99.90
44823;DHT22;51097;51.984;5.650;2023-11-21T12:22:44;15.30;99.90
44823;DHT22;51097;51.984;5.650;2023-11-21T12:25:10;15.30;99.90
44823;DHT22;51097;51.984;5.650;2023-11-21T12:27:44;15.30;99.90
44823;DHT22;51097;51.984;5.650;2023-11-21T12:30:11;15.40;99.90
44823;DHT22;51097;51.984;5.650;2023-11-21T12:32:43;15.40;99.90
44823;DHT22;51097;51.984;5.650;2023-11-21T12:35:09;15.50;99.90
44823;DHT22;51097;51.984;5.650;2023-11-21T12:37:40;15.40;99.90
44823;DHT22;51097;51.984;5.650;2023-11-21T12:40:08;15.30;99.90
44823;DHT22;51097;51.984;5.650;2023-11-21T12:42:37;15.30;99.90
44823;DHT22;51097;51.984;5.650;2023-11-21T12:45:24;15.30;99.90
44823;DHT22;51097;51.984;5.650;2023-11-21T12:47:54;15.30;99.90
44823;DHT22;51097;51.984;5.650;2023-11-21T12:50:21;15.30;99.90
44823;DHT22;51097;51.984;5.650;2023-11-21T12:52:50;15.20;99.90
44823;DHT22;51097;51.984;5.650;2023-11-21T12:55:25;15.30;99.90
44823;DHT22;51097;51.984;5.650;2023-11-21T12:57:55;15.10;99.90
44823;DHT22;51097;51.984;5.650;2023-11-21T13:00:32;14.90;99.90
44823;DHT22;51097;51.984;5.650;2023-11-21T13:02:59;14.90;99.90
44823;DHT22;51097;51.984;5.650;2023-11-21T13:05:35;15.00;99.90
44823;DHT22;51097;51.984;5.650;2023-11-21T13:08:04;15.10;99.90
44823;DHT22;51097;51.984;5.650;2023-11-21T13:10:34;15.10;99.90
44823;DHT22;51097;51.984;5.650;2023-11-21T13:13:04;15.10;99.90
44823;DHT22;51097;51.984;5.650;2023-11-21T13:15:40;15.10;99.90
44823;DHT22;51097;51.984;5.650;2023-11-21T13:18:08;15.00;99.90
44823;DHT22;51097;51.984;5.650;2023-11-21T13:20:36;15.10;99.90
44823;DHT22;51097;51.984;5.650;2023-11-21T13:23:07;14.90;99.90
44823;DHT22;51097;51.984;5.650;2023-11-21T13:25:33;14.90;99.90
44823;DHT22;51097;51.984;5.650;2023-11-21T13:28:00;14.90;99.90
44823;DHT22;51097;51.984;5.650;2023-11-21T13:30:28;15.00;99.90
44823;DHT22;51097;51.984;5.650;2023-11-21T13:33:03;15.10;99.90
44823;DHT22;51097;51.984;5.650;2023-11-21T13:35:38;15.10;99.90
44823;DHT22;51097;51.984;5.650;2023-11-21T13:38:10;15.10;99.90
44823;DHT22;51097;51.984;5.650;2023-11-21T13:40:37;15.10;99.90
44823;DHT22;51097;51.984;5.650;2023-11-21T13:43:09;15.20;99.90
44823;DHT22;51097;51.984;5.650;2023-11-21T13:45:43;15.00;99.90
44823;DHT22;51097;51.984;5.650;2023-11-21T13:48:10;15.20;99.90
44823;DHT22;51097;51.984;5.650;2023-11-21T13:50:45;15.30;99.90
44823;DHT22;51097;51.984;5.650;2023-11-21T13:53:24;15.20;99.90
44823;DHT22;51097;51.984;5.650;2023-11-21T13:55:50;15.20;99.90
44823;DHT22;51097;51.984;5.650;2023-11-21T13:58:17;15.40;99.90
44823;DHT22;51097;51.984;5.650;2023-11-21T14:00:45;15.30;99.90
44823;DHT22;51097;51.984;5.650;2023-11-21T14:03:12;15.40;99.90
44823;DHT22;51097;51.984;5.650;2023-11-21T14:05:47;15.30;99.90
44823;DHT22;51097;51.984;5.650;2023-11-21T14:08:19;15.30;99.90
44823;DHT22;51097;51.984;5.650;2023-11-21T14:10:49;15.30;99.90
44823;DHT22;51097;51.984;5.650;2023-11-21T14:13:23;15.30;99.90
44823;DHT22;51097;51.984;5.650;2023-11-21T14:15:50;15.30;99.90
44823;DHT22;51097;51.984;5.650;2023-11-21T14:18:26;15.30;99.90
44823;DHT22;51097;51.984;5.650;2023-11-21T14:21:07;15.20;99.90
44823;DHT22;51097;51.984;5.650;2023-11-21T14:23:34;15.10;99.90
44823;DHT22;51097;51.984;5.650;2023-11-21T14:26:01;15.00;99.90
44823;DHT22;51097;51.984;5.650;2023-11-21T14:28:27;14.90;99.90
44823;DHT22;51097;51.984;5.650;2023-11-21T14:30:52;14.90;99.90
44823;DHT22;51097;51.984;5.650;2023-11-21T14:33:18;14.90;99.90
44823;DHT22;51097;51.984;5.650;2023-11-21T14:35:44;14.70;99.90
44823;DHT22;51097;51.984;5.650;2023-11-21T14:38:10;14.70;99.90
44823;DHT22;51097;51.984;5.650;2023-11-21T14:40:36;14.70;99.90
44823;DHT22;51097;51.984;5.650;2023-11-21T14:43:02;14.60;99.90
44823;DHT22;51097;51.984;5.650;2023-11-21T14:45:32;14.60;99.90
44823;DHT22;51097;51.984;5.650;2023-11-21T14:47:58;14.50;99.90
44823;DHT22;51097;51.984;5.650;2023-11-21T14:50:30;14.50;99.90
44823;DHT22;51097;51.984;5.650;2023-11-21T14:53:11;14.50;99.90
44823;DHT22;51097;51.984;5.650;2023-11-21T14:55:39;14.60;99.90
44823;DHT22;51097;51.984;5.650;2023-11-21T14:58:17;14.50;99.90
44823;DHT22;51097;51.984;5.650;2023-11-21T15:00:53;14.50;99.90
44823;DHT22;51097;51.984;5.650;2023-11-21T15:03:26;14.40;99.90
44823;DHT22;51097;51.984;5.650;2023-11-21T15:06:09;14.20;99.90
44823;DHT22;51097;51.984;5.650;2023-11-21T15:08:58;14.30;99.90
44823;DHT22;51097;51.984;5.650;2023-11-21T15:11:33;14.20;99.90
44823;DHT22;51097;51.984;5.650;2023-11-21T15:13:59;14.20;99.90
44823;DHT22;51097;51.984;5.650;2023-11-21T15:16:25;14.20;99.90
44823;DHT22;51097;51.984;5.650;2023-11-21T15:18:52;14.10;99.90
44823;DHT22;51097;51.984;5.650;2023-11-21T15:21:19;14.10;99.90
44823;DHT22;51097;51.984;5.650;2023-11-21T15:23:46;14.00;99.90
44823;DHT22;51097;51.984;5.650;2023-11-21T15:26:12;13.90;99.90
44823;DHT22;51097;51.984;5.650;2023-11-21T15:28:38;13.80;99.90
44823;DHT22;51097;51.984;5.650;2023-11-21T15:31:03;13.80;99.90
44823;DHT22;51097;51.984;5.650;2023-11-21T15:33:30;13.80;99.90
44823;DHT22;51097;51.984;5.650;2023-11-21T15:35:55;13.70;99.90
44823;DHT22;51097;51.984;5.650;2023-11-21T15:38:21;13.70;99.90
44823;DHT22;51097;51.984;5.650;2023-11-21T15:40:47;13.70;99.90
44823;DHT22;51097;51.984;5.650;2023-11-21T15:43:14;13.50;99.90
44823;DHT22;51097;51.984;5.650;2023-11-21T15:45:40;13.40;99.90